createdAt,value
2023-05-22T00:00:50.167Z,33.34
2023-05-22T00:01:50.259Z,33.32
2023-05-22T00:02:50.266Z,33.32
2023-05-22T00:03:50.295Z,33.32
2023-05-22T00:04:50.360Z,33.33
2023-05-22T00:05:50.409Z,33.32
2023-05-22T00:06:50.417Z,33.34
2023-05-22T00:07:50.492Z,33.34
2023-05-22T00:08:50.475Z,33.36
2023-05-22T00:09:50.544Z,33.35
2023-05-22T00:10:50.584Z,33.35
2023-05-22T00:11:50.590Z,33.35
2023-05-22T00:12:50.663Z,33.35
2023-05-22T00:13:50.706Z,33.35
2023-05-22T00:14:50.709Z,33.39
2023-05-22T00:15:50.790Z,33.36
2023-05-22T00:16:50.822Z,33.37
2023-05-22T00:17:50.869Z,33.37
2023-05-22T00:18:50.927Z,33.40
2023-05-22T00:19:50.976Z,33.40
2023-05-22T00:20:50.964Z,33.41
2023-05-22T00:21:51.030Z,33.42
2023-05-22T00:22:51.038Z,33.42
2023-05-22T00:23:51.072Z,33.42
2023-05-22T00:24:51.148Z,33.42
2023-05-22T00:25:51.158Z,33.42
2023-05-22T00:26:51.206Z,33.40
2023-05-22T00:27:51.278Z,33.43
2023-05-22T00:28:51.275Z,33.43
2023-05-22T00:29:51.330Z,33.42
2023-05-22T00:30:51.408Z,33.44
2023-05-22T00:31:51.425Z,33.44
2023-05-22T00:32:51.486Z,33.45
2023-05-22T00:33:51.552Z,33.43
2023-05-22T00:34:51.680Z,33.41
2023-05-22T00:35:51.633Z,33.43
2023-05-22T00:36:51.650Z,33.42
2023-05-22T00:37:51.715Z,33.41
2023-05-22T00:38:51.767Z,33.44
2023-05-22T00:39:51.814Z,33.43
2023-05-22T00:40:51.884Z,33.42
2023-05-22T00:41:51.900Z,33.45
2023-05-22T00:42:51.945Z,33.43
2023-05-22T00:43:52.007Z,33.46
2023-05-22T00:44:52.053Z,33.43
2023-05-22T00:45:52.124Z,33.43
2023-05-22T00:46:52.279Z,33.43
2023-05-22T00:47:52.270Z,33.43
2023-05-22T00:48:52.253Z,33.44
2023-05-22T00:49:52.278Z,33.43
2023-05-22T00:50:52.404Z,33.44
2023-05-22T00:51:52.409Z,33.45
2023-05-22T00:52:52.417Z,33.46
2023-05-22T00:53:52.490Z,33.45
2023-05-22T00:54:52.536Z,33.42
2023-05-22T00:55:52.614Z,33.46
2023-05-22T00:56:52.639Z,33.44
2023-05-22T00:57:52.756Z,33.46
2023-05-22T00:58:52.711Z,33.47
2023-05-22T00:59:52.773Z,33.47
2023-05-22T01:00:52.830Z,33.47
2023-05-22T01:01:52.897Z,33.48
2023-05-22T01:02:53.038Z,33.48
2023-05-22T01:03:53.129Z,33.48
2023-05-22T01:04:53.018Z,33.47
2023-05-22T01:05:53.071Z,33.48
2023-05-22T01:06:53.123Z,33.48
2023-05-22T01:07:53.269Z,33.47
2023-05-22T01:08:53.250Z,33.43
2023-05-22T01:09:53.348Z,33.48
2023-05-22T01:10:53.361Z,33.47
2023-05-22T01:11:53.421Z,33.46
2023-05-22T01:12:53.421Z,33.46
2023-05-22T01:13:53.541Z,33.47
2023-05-22T01:14:53.608Z,33.47
2023-05-22T01:15:53.637Z,33.47
2023-05-22T01:16:53.656Z,33.48
2023-05-22T01:17:53.758Z,33.45
2023-05-22T01:18:53.801Z,33.44
2023-05-22T01:19:53.822Z,33.46
2023-05-22T01:20:53.899Z,33.49
2023-05-22T01:21:54.880Z,33.46
2023-05-22T01:22:54.015Z,33.49
2023-05-22T01:23:54.118Z,33.56
2023-05-22T01:24:54.142Z,33.54
2023-05-22T01:25:54.171Z,33.55
2023-05-22T01:26:54.238Z,33.56
2023-05-22T01:27:54.245Z,33.55
2023-05-22T01:28:54.290Z,33.58
2023-05-22T01:29:54.363Z,33.57
2023-05-22T01:30:54.503Z,33.58
2023-05-22T01:31:54.477Z,33.58
2023-05-22T01:32:54.598Z,33.58
2023-05-22T01:33:54.877Z,33.57
2023-05-22T01:34:54.674Z,33.58
2023-05-22T01:35:54.757Z,33.59
2023-05-22T01:36:54.755Z,33.59
2023-05-22T01:37:54.833Z,33.58
2023-05-22T01:38:54.905Z,33.59
2023-05-22T01:39:54.989Z,33.62
2023-05-22T01:40:54.996Z,33.58
2023-05-22T01:41:55.103Z,33.60
2023-05-22T01:42:55.173Z,33.63
2023-05-22T01:43:55.234Z,33.63
2023-05-22T01:44:55.283Z,33.63
2023-05-22T01:45:55.392Z,33.62
2023-05-22T01:46:55.415Z,33.63
2023-05-22T01:47:55.495Z,33.63
2023-05-22T01:48:55.529Z,33.63
2023-05-22T01:49:55.532Z,33.65
2023-05-22T01:50:55.637Z,33.65
2023-05-22T01:51:55.682Z,33.65
2023-05-22T01:52:55.755Z,33.65
2023-05-22T01:53:55.803Z,33.66
2023-05-22T01:54:55.875Z,33.67
2023-05-22T01:55:56.008Z,33.69
2023-05-22T01:56:55.952Z,33.66
2023-05-22T01:57:56.002Z,33.67
2023-05-22T01:58:56.046Z,33.69
2023-05-22T01:59:56.116Z,33.69
2023-05-22T02:00:56.178Z,33.68
2023-05-22T02:01:56.234Z,33.70
2023-05-22T02:02:56.352Z,33.69
2023-05-22T02:03:56.390Z,33.69
2023-05-22T02:04:56.384Z,33.66
2023-05-22T02:05:56.501Z,33.69
2023-05-22T02:06:56.509Z,33.68
2023-05-22T02:07:56.567Z,33.70
2023-05-22T02:08:56.624Z,33.70
2023-05-22T02:09:56.707Z,33.71
2023-05-22T02:10:56.737Z,33.68
2023-05-22T02:11:56.830Z,33.69
2023-05-22T02:12:56.855Z,33.69
2023-05-22T02:13:56.858Z,33.69
2023-05-22T02:14:56.945Z,33.71
2023-05-22T02:15:57.002Z,33.69
2023-05-22T02:16:57.046Z,33.68
2023-05-22T02:17:57.121Z,33.70
2023-05-22T02:18:57.232Z,33.71
2023-05-22T02:19:57.202Z,33.74
2023-05-22T02:20:57.279Z,33.75
2023-05-22T02:21:57.407Z,33.74
2023-05-22T02:22:57.401Z,33.73
2023-05-22T02:23:57.497Z,33.74
2023-05-22T02:24:57.520Z,33.72
2023-05-22T02:25:57.565Z,33.74
2023-05-22T02:26:57.641Z,33.74
2023-05-22T02:27:57.670Z,33.75
2023-05-22T02:28:57.752Z,33.74
2023-05-22T02:29:57.784Z,33.73
2023-05-22T02:30:57.920Z,33.73
2023-05-22T02:31:57.912Z,33.73
2023-05-22T02:32:58.016Z,33.75
2023-05-22T02:33:58.022Z,33.75
2023-05-22T02:34:58.039Z,33.75
2023-05-22T02:35:58.094Z,33.75
2023-05-22T02:36:58.107Z,33.75
2023-05-22T02:37:58.164Z,33.78
2023-05-22T02:38:58.213Z,33.75
2023-05-22T02:39:58.233Z,33.78
2023-05-22T02:40:58.279Z,33.77
2023-05-22T02:41:58.357Z,33.76
2023-05-22T02:42:58.363Z,33.77
2023-05-22T02:43:58.361Z,33.78
2023-05-22T02:44:58.420Z,33.78
2023-05-22T02:45:58.411Z,33.79
2023-05-22T02:46:58.462Z,33.76
2023-05-22T02:47:58.517Z,33.79
2023-05-22T02:48:58.496Z,33.78
2023-05-22T02:49:58.534Z,33.79
2023-05-22T02:50:58.550Z,33.79
2023-05-22T02:51:58.614Z,33.80
2023-05-22T02:52:58.617Z,33.77
2023-05-22T02:53:58.630Z,33.77
2023-05-22T02:54:58.687Z,33.79
2023-05-22T02:55:58.689Z,33.77
2023-05-22T02:56:58.703Z,33.76
2023-05-22T02:57:58.689Z,33.78
2023-05-22T02:58:58.713Z,33.77
2023-05-22T02:59:58.777Z,33.76
2023-05-22T03:00:58.783Z,33.79
2023-05-22T03:01:58.822Z,33.80
2023-05-22T03:02:58.867Z,33.79
2023-05-22T03:03:58.950Z,33.80
2023-05-22T03:04:58.822Z,33.80
2023-05-22T03:05:59.244Z,33.81
2023-05-22T03:06:58.881Z,33.81
2023-05-22T03:07:58.864Z,33.80
2023-05-22T03:08:58.874Z,33.79
2023-05-22T03:09:58.936Z,33.82
2023-05-22T03:10:58.885Z,33.81
2023-05-22T03:11:58.961Z,33.82
2023-05-22T03:12:58.913Z,33.80
2023-05-22T03:13:58.906Z,33.83
2023-05-22T03:14:58.929Z,33.84
2023-05-22T03:15:58.939Z,33.84
2023-05-22T03:16:59.016Z,33.83
2023-05-22T03:17:58.979Z,33.82
2023-05-22T03:18:58.988Z,33.84
2023-05-22T03:19:58.944Z,33.83
2023-05-22T03:20:58.961Z,33.83
2023-05-22T03:21:58.960Z,33.83
2023-05-22T03:22:58.936Z,33.86
2023-05-22T03:23:58.980Z,33.86
2023-05-22T03:24:58.988Z,33.85
2023-05-22T03:25:58.962Z,33.85
2023-05-22T03:26:58.955Z,33.86
2023-05-22T03:27:58.965Z,33.85
2023-05-22T03:28:59.017Z,33.84
2023-05-22T03:29:58.982Z,33.84
2023-05-22T03:30:58.938Z,33.84
2023-05-22T03:31:59.014Z,33.86
2023-05-22T03:32:58.961Z,33.86
2023-05-22T03:33:58.973Z,33.85
2023-05-22T03:34:58.959Z,33.85
2023-05-22T03:35:58.974Z,33.84
2023-05-22T03:36:59.072Z,33.85
2023-05-22T03:37:58.982Z,33.84
2023-05-22T03:38:58.937Z,33.85
2023-05-22T03:39:58.989Z,33.84
2023-05-22T03:40:58.957Z,33.85
2023-05-22T03:41:58.987Z,33.88
2023-05-22T03:42:58.965Z,33.84
2023-05-22T03:43:58.977Z,33.84
2023-05-22T03:44:58.926Z,33.86
2023-05-22T03:45:58.957Z,33.82
2023-05-22T03:46:58.938Z,33.82
2023-05-22T03:47:58.953Z,33.83
2023-05-22T03:48:58.955Z,33.84
2023-05-22T03:49:58.925Z,33.84
2023-05-22T03:50:58.974Z,33.84
2023-05-22T03:51:58.975Z,33.83
2023-05-22T03:52:58.980Z,33.80
2023-05-22T03:53:58.937Z,33.81
2023-05-22T03:54:58.957Z,33.83
2023-05-22T03:55:58.920Z,33.81
2023-05-22T03:56:58.957Z,33.80
2023-05-22T03:57:58.958Z,33.80
2023-05-22T03:58:58.909Z,33.78
2023-05-22T03:59:58.990Z,33.80
2023-05-22T04:00:58.928Z,33.79
2023-05-22T04:01:59.048Z,33.78
2023-05-22T04:02:59.035Z,33.67
2023-05-22T04:03:58.970Z,33.56
2023-05-22T04:04:59.078Z,33.51
2023-05-22T04:05:58.974Z,33.44
2023-05-22T04:06:58.975Z,33.36
2023-05-22T04:07:59.011Z,33.31
2023-05-22T04:08:58.978Z,33.25
2023-05-22T04:09:59.001Z,33.23
2023-05-22T04:10:58.990Z,33.13
2023-05-22T04:11:59.028Z,33.17
2023-05-22T04:12:58.966Z,33.06
2023-05-22T04:13:59.018Z,33.01
2023-05-22T04:14:58.973Z,32.96
2023-05-22T04:15:59.080Z,32.90
2023-05-22T04:16:59.032Z,32.88
2023-05-22T04:17:59.030Z,32.85
2023-05-22T04:18:59.087Z,32.76
2023-05-22T04:19:59.979Z,32.80
2023-05-22T04:20:59.064Z,32.69
2023-05-22T04:21:59.063Z,32.63
2023-05-22T04:22:59.081Z,32.57
2023-05-22T04:23:59.076Z,32.53
2023-05-22T04:24:59.103Z,32.49
2023-05-22T04:25:59.122Z,32.46
2023-05-22T04:26:59.112Z,32.40
2023-05-22T04:27:59.143Z,32.30
2023-05-22T04:28:59.119Z,32.27
2023-05-22T04:29:59.096Z,32.23
2023-05-22T04:30:59.170Z,32.25
2023-05-22T04:31:59.095Z,32.23
2023-05-22T04:32:59.135Z,32.22
2023-05-22T04:33:59.105Z,32.23
2023-05-22T04:34:59.126Z,32.21
2023-05-22T04:35:59.144Z,32.18
2023-05-22T04:36:59.129Z,32.16
2023-05-22T04:37:59.136Z,32.15
2023-05-22T04:38:59.139Z,32.16
2023-05-22T04:39:59.147Z,32.17
2023-05-22T04:40:59.158Z,32.13
2023-05-22T04:41:59.274Z,32.12
2023-05-22T04:42:59.277Z,32.10
2023-05-22T04:43:59.400Z,32.06
2023-05-22T04:44:59.398Z,32.03
2023-05-22T04:45:59.450Z,31.99
2023-05-22T04:46:59.662Z,32.00
2023-05-22T04:47:59.634Z,32.02
2023-05-22T04:48:59.651Z,32.00
2023-05-22T04:49:59.670Z,31.98
2023-05-22T04:51:00.045Z,31.99
2023-05-22T04:51:59.798Z,31.98
2023-05-22T04:52:59.862Z,31.97
2023-05-22T04:53:59.929Z,31.95
2023-05-22T04:55:01.149Z,31.94
2023-05-22T04:55:59.987Z,31.94
2023-05-22T04:57:00.031Z,31.95
2023-05-22T04:58:00.121Z,31.90
2023-05-22T04:59:00.104Z,31.92
2023-05-22T05:00:00.151Z,31.92
2023-05-22T05:01:00.286Z,31.92
2023-05-22T05:02:00.212Z,31.89
2023-05-22T05:03:00.408Z,31.93
2023-05-22T05:04:00.447Z,31.91
2023-05-22T05:05:00.349Z,31.91
2023-05-22T05:06:00.370Z,31.91
2023-05-22T05:07:00.467Z,31.90
2023-05-22T05:08:00.482Z,31.90
2023-05-22T05:09:01.510Z,31.89
2023-05-22T05:10:00.624Z,31.86
2023-05-22T05:11:00.618Z,31.89
2023-05-22T05:12:00.661Z,31.85
2023-05-22T05:13:00.706Z,31.94
2023-05-22T05:14:00.741Z,31.95
2023-05-22T05:15:00.795Z,31.98
2023-05-22T05:16:00.912Z,31.99
2023-05-22T05:17:01.021Z,32.00
2023-05-22T05:18:00.984Z,32.03
2023-05-22T05:19:01.056Z,32.02
2023-05-22T05:20:01.087Z,32.03
2023-05-22T05:21:01.061Z,31.99
2023-05-22T05:22:01.103Z,32.00
2023-05-22T05:23:01.157Z,32.01
2023-05-22T05:24:01.198Z,31.95
2023-05-22T05:25:01.298Z,31.90
2023-05-22T05:26:01.321Z,31.94
2023-05-22T05:27:01.362Z,32.01
2023-05-22T05:28:01.430Z,32.01
2023-05-22T05:29:01.488Z,32.03
2023-05-22T05:30:01.511Z,31.92
2023-05-22T05:31:01.554Z,31.88
2023-05-22T05:32:01.676Z,31.45
2023-05-22T05:33:01.824Z,31.52
2023-05-22T05:34:01.783Z,31.65
2023-05-22T05:35:03.128Z,31.82
2023-05-22T05:36:01.766Z,31.85
2023-05-22T05:37:01.757Z,32.06
2023-05-22T05:38:01.747Z,32.27
2023-05-22T05:39:01.759Z,32.32
2023-05-22T05:40:01.789Z,32.20
2023-05-22T05:41:01.796Z,32.25
2023-05-22T05:42:01.736Z,32.30
2023-05-22T05:43:01.736Z,32.43
2023-05-22T05:44:01.760Z,32.49
2023-05-22T05:45:01.718Z,32.45
2023-05-22T05:46:01.847Z,32.70
2023-05-22T05:47:01.769Z,32.59
2023-05-22T05:48:01.804Z,32.61
2023-05-22T05:49:01.719Z,32.77
2023-05-22T05:50:01.738Z,32.73
2023-05-22T05:51:01.847Z,32.85
2023-05-22T05:52:01.776Z,32.81
2023-05-22T05:53:01.757Z,32.57
2023-05-22T05:54:01.817Z,32.72
2023-05-22T05:55:01.750Z,32.77
2023-05-22T05:56:01.806Z,32.74
2023-05-22T05:57:01.787Z,32.92
2023-05-22T05:58:01.830Z,33.01
2023-05-22T05:59:01.760Z,33.06
2023-05-22T06:00:01.808Z,33.08
2023-05-22T06:01:01.753Z,33.19
2023-05-22T06:02:01.798Z,33.21
2023-05-22T06:03:01.910Z,33.24
2023-05-22T06:04:01.919Z,33.24
2023-05-22T06:05:01.841Z,33.29
2023-05-22T06:06:01.939Z,33.29
2023-05-22T06:07:01.937Z,33.37
2023-05-22T06:08:01.805Z,33.37
2023-05-22T06:09:01.859Z,33.37
2023-05-22T06:10:01.929Z,33.39
2023-05-22T06:11:01.969Z,33.42
2023-05-22T06:12:02.050Z,33.49
2023-05-22T06:13:02.074Z,33.47
2023-05-22T06:14:02.099Z,33.53
2023-05-22T06:15:02.177Z,33.90
2023-05-22T06:16:05.708Z,33.85
2023-05-22T06:17:02.211Z,33.90
2023-05-22T06:18:02.566Z,33.99
2023-05-22T06:19:02.228Z,34.06
2023-05-22T06:20:02.197Z,34.07
2023-05-22T06:21:02.200Z,34.32
2023-05-22T06:22:02.165Z,34.35
2023-05-22T06:23:02.540Z,34.37
2023-05-22T06:24:02.150Z,34.34
2023-05-22T06:25:02.229Z,34.41
2023-05-22T06:26:02.126Z,34.40
2023-05-22T06:27:02.129Z,34.53
2023-05-22T06:28:02.178Z,34.51
2023-05-22T06:29:02.083Z,34.59
2023-05-22T06:30:03.717Z,34.64
2023-05-22T06:31:02.277Z,34.61
2023-05-22T06:32:02.467Z,34.60
2023-05-22T06:33:02.433Z,34.66
2023-05-22T06:34:02.612Z,34.66
2023-05-22T06:35:02.553Z,34.62
2023-05-22T06:36:02.532Z,34.64
2023-05-22T06:37:02.538Z,34.65
2023-05-22T06:38:02.630Z,34.67
2023-05-22T06:39:02.678Z,34.72
2023-05-22T06:40:03.056Z,34.72
2023-05-22T06:41:02.762Z,34.70
2023-05-22T06:42:02.873Z,34.62
2023-05-22T06:43:02.813Z,34.74
2023-05-22T06:44:02.864Z,34.89
2023-05-22T06:45:02.972Z,34.48
2023-05-22T06:46:02.993Z,34.57
2023-05-22T06:47:03.003Z,34.45
2023-05-22T06:48:04.116Z,34.39
2023-05-22T06:49:03.150Z,34.44
2023-05-22T06:50:03.212Z,34.57
2023-05-22T06:51:03.231Z,34.47
2023-05-22T06:52:05.183Z,34.41
2023-05-22T06:53:03.321Z,34.39
2023-05-22T06:54:03.368Z,34.37
2023-05-22T06:55:03.435Z,34.35
2023-05-22T06:56:03.478Z,34.35
2023-05-22T06:57:03.489Z,34.38
2023-05-22T06:58:05.112Z,34.35
2023-05-22T06:59:05.972Z,34.34
2023-05-22T07:00:03.573Z,34.44
2023-05-22T07:01:03.622Z,34.36
2023-05-22T07:02:03.631Z,34.43
2023-05-22T07:03:03.595Z,34.39
2023-05-22T07:04:03.553Z,34.40
2023-05-22T07:05:03.528Z,34.31
2023-05-22T07:06:03.566Z,34.29
2023-05-22T07:07:03.545Z,34.36
2023-05-22T07:08:03.533Z,34.38
2023-05-22T07:09:03.502Z,34.30
2023-05-22T07:10:03.486Z,34.31
2023-05-22T07:11:03.518Z,34.34
2023-05-22T07:12:03.552Z,34.33
2023-05-22T07:13:03.574Z,34.31
2023-05-22T07:14:03.498Z,34.34
2023-05-22T07:15:03.499Z,34.40
2023-05-22T07:16:03.513Z,34.36
2023-05-22T07:17:03.446Z,34.27
2023-05-22T07:18:03.496Z,34.31
2023-05-22T07:19:03.601Z,34.30
2023-05-22T07:20:03.437Z,34.41
2023-05-22T07:21:03.544Z,34.38
2023-05-22T07:22:03.453Z,34.34
2023-05-22T07:23:03.446Z,34.45
2023-05-22T07:24:03.450Z,34.47
2023-05-22T07:25:03.428Z,34.51
2023-05-22T07:26:03.378Z,34.41
2023-05-22T07:27:03.474Z,34.45
2023-05-22T07:28:03.389Z,34.46
2023-05-22T07:29:03.706Z,34.47
2023-05-22T07:30:03.717Z,34.51
2023-05-22T07:31:03.413Z,34.45
2023-05-22T07:32:03.488Z,34.46
2023-05-22T07:33:04.153Z,34.57
2023-05-22T07:34:03.697Z,34.66
2023-05-22T07:35:04.052Z,34.70
2023-05-22T07:36:03.337Z,34.76
2023-05-22T07:37:03.358Z,34.79
2023-05-22T07:38:03.354Z,34.71
2023-05-22T07:39:03.275Z,34.75
2023-05-22T07:40:03.348Z,34.63
2023-05-22T07:41:03.301Z,34.60
2023-05-22T07:42:03.271Z,34.61
2023-05-22T07:43:03.277Z,34.46
2023-05-22T07:44:03.358Z,34.48
2023-05-22T07:45:03.272Z,34.50
2023-05-22T07:46:03.311Z,34.40
2023-05-22T07:47:03.269Z,34.44
2023-05-22T07:48:03.342Z,34.38
2023-05-22T07:49:03.289Z,34.41
2023-05-22T07:50:04.168Z,34.33
2023-05-22T07:51:03.330Z,34.32
2023-05-22T07:52:03.335Z,34.44
2023-05-22T07:53:03.312Z,34.41
2023-05-22T07:54:03.339Z,34.41
2023-05-22T07:55:03.404Z,34.43
2023-05-22T07:56:03.378Z,34.32
2023-05-22T07:57:03.393Z,34.27
2023-05-22T07:58:03.416Z,34.32
2023-05-22T07:59:03.455Z,34.35
2023-05-22T08:00:03.581Z,34.40
2023-05-22T08:01:03.422Z,34.50
2023-05-22T08:02:03.515Z,34.57
2023-05-22T08:03:03.595Z,34.55
2023-05-22T08:04:03.549Z,34.57
2023-05-22T08:05:03.529Z,34.55
2023-05-22T08:06:03.564Z,34.60
2023-05-22T08:07:03.541Z,34.53
2023-05-22T08:08:03.525Z,34.41
2023-05-22T08:09:03.530Z,34.47
2023-05-22T08:10:03.533Z,34.51
2023-05-22T08:11:04.545Z,34.48
2023-05-22T08:12:03.573Z,34.49
2023-05-22T08:13:03.567Z,34.52
2023-05-22T08:14:03.572Z,34.26
2023-05-22T08:15:03.593Z,34.17
2023-05-22T08:16:03.511Z,34.11
2023-05-22T08:17:03.572Z,34.13
2023-05-22T08:18:03.585Z,34.10
2023-05-22T08:19:03.583Z,34.05
2023-05-22T08:20:03.701Z,33.98
2023-05-22T08:21:03.563Z,33.98
2023-05-22T08:22:03.514Z,34.00
2023-05-22T08:23:03.513Z,33.97
2023-05-22T08:24:03.522Z,33.86
2023-05-22T08:25:03.662Z,33.81
2023-05-22T08:26:03.550Z,33.73
2023-05-22T08:27:03.559Z,33.64
2023-05-22T08:28:03.497Z,33.28
2023-05-22T08:29:03.513Z,32.49
2023-05-22T08:30:03.590Z,31.94
2023-05-22T08:31:03.550Z,31.94
2023-05-22T08:32:03.532Z,32.14
2023-05-22T08:33:03.575Z,31.26
2023-05-22T08:34:03.585Z,31.39
2023-05-22T08:35:03.617Z,31.02
2023-05-22T08:36:03.598Z,30.77
2023-05-22T08:37:03.657Z,30.48
2023-05-22T08:38:03.684Z,30.35
2023-05-22T08:39:03.777Z,30.13
2023-05-22T08:40:03.792Z,30.20
2023-05-22T08:41:03.860Z,30.25
2023-05-22T08:42:03.989Z,30.50
2023-05-22T08:43:04.029Z,30.76
2023-05-22T08:44:04.034Z,30.88
2023-05-22T08:45:04.083Z,30.98
2023-05-22T08:46:04.567Z,31.00
2023-05-22T08:47:04.270Z,31.02
2023-05-22T08:48:04.683Z,31.25
2023-05-22T08:49:04.195Z,31.46
2023-05-22T08:50:04.236Z,31.57
2023-05-22T08:51:04.319Z,31.68
2023-05-22T08:52:04.340Z,31.72
2023-05-22T08:53:04.359Z,31.84
2023-05-22T08:54:04.380Z,31.91
2023-05-22T08:55:04.372Z,31.99
2023-05-22T08:56:04.370Z,31.94
2023-05-22T08:57:04.427Z,32.03
2023-05-22T08:58:04.573Z,32.14
2023-05-22T08:59:04.382Z,32.19
2023-05-22T09:00:05.112Z,32.18
2023-05-22T09:01:05.115Z,32.22
2023-05-22T09:02:06.454Z,32.22
2023-05-22T09:03:05.148Z,32.18
2023-05-22T09:04:04.646Z,32.19
2023-05-22T09:05:04.371Z,32.35
2023-05-22T09:06:04.448Z,32.40
2023-05-22T09:07:04.588Z,32.32
2023-05-22T09:08:16.047Z,32.21
2023-05-22T09:09:05.639Z,32.04
2023-05-22T09:10:04.719Z,32.17
2023-05-22T09:11:04.689Z,32.19
2023-05-22T09:12:04.716Z,32.14
2023-05-22T09:13:04.711Z,32.41
2023-05-22T09:14:04.702Z,32.39
2023-05-22T09:15:04.661Z,32.36
2023-05-22T09:16:04.734Z,32.39
2023-05-22T09:17:05.182Z,32.41
2023-05-22T09:18:04.704Z,32.41
2023-05-22T09:19:05.654Z,32.41
2023-05-22T09:20:04.734Z,32.45
2023-05-22T09:21:11.449Z,32.46
2023-05-22T09:22:05.809Z,32.44
2023-05-22T09:23:04.801Z,32.52
2023-05-22T09:24:04.808Z,32.54
2023-05-22T09:25:04.769Z,32.51
2023-05-22T09:26:04.771Z,32.47
2023-05-22T09:27:05.137Z,32.54
2023-05-22T09:28:04.780Z,32.34
2023-05-22T09:29:05.112Z,32.35
2023-05-22T09:30:05.114Z,32.42
2023-05-22T09:31:04.890Z,32.29
2023-05-22T09:32:04.779Z,32.35
2023-05-22T09:33:04.762Z,32.41
2023-05-22T09:34:04.741Z,32.45
2023-05-22T09:35:05.670Z,32.45
2023-05-22T09:36:04.939Z,32.41
2023-05-22T09:37:04.769Z,32.18
2023-05-22T09:38:04.718Z,31.93
2023-05-22T09:39:04.768Z,31.68
2023-05-22T09:40:05.157Z,31.57
2023-05-22T09:41:05.138Z,31.61
2023-05-22T09:42:04.690Z,31.55
2023-05-22T09:43:05.612Z,31.69
2023-05-22T09:44:04.720Z,31.73
2023-05-22T09:45:04.745Z,31.54
2023-05-22T09:46:04.900Z,31.61
2023-05-22T09:47:04.877Z,31.73
2023-05-22T09:48:04.987Z,31.73
2023-05-22T09:49:04.979Z,31.74
2023-05-22T09:50:05.060Z,31.58
2023-05-22T09:51:05.118Z,31.55
2023-05-22T09:52:05.163Z,31.54
2023-05-22T09:53:05.590Z,31.48
2023-05-22T09:54:05.625Z,31.45
2023-05-22T09:55:05.294Z,31.41
2023-05-22T09:56:05.351Z,31.49
2023-05-22T09:57:05.342Z,31.63
2023-05-22T09:58:05.452Z,31.55
2023-05-22T09:59:05.526Z,31.57
2023-05-22T10:00:05.602Z,31.56
2023-05-22T10:01:05.626Z,31.56
2023-05-22T10:02:05.807Z,31.64
2023-05-22T10:03:05.794Z,31.53
2023-05-22T10:04:05.812Z,31.55
2023-05-22T10:05:05.817Z,31.62
2023-05-22T10:06:05.938Z,31.77
2023-05-22T10:07:05.983Z,31.88
2023-05-22T10:08:05.988Z,31.86
2023-05-22T10:09:06.091Z,32.02
2023-05-22T10:10:06.121Z,32.03
2023-05-22T10:11:06.157Z,31.89
2023-05-22T10:12:06.405Z,31.93
2023-05-22T10:13:06.358Z,31.78
2023-05-22T10:14:06.342Z,31.87
2023-05-22T10:15:06.669Z,32.04
2023-05-22T10:16:06.499Z,32.20
2023-05-22T10:17:06.693Z,32.18
2023-05-22T10:18:06.633Z,32.17
2023-05-22T10:19:06.720Z,32.07
2023-05-22T10:20:07.115Z,32.14
2023-05-22T10:21:06.742Z,32.24
2023-05-22T10:22:06.864Z,32.15
2023-05-22T10:23:06.828Z,32.33
2023-05-22T10:24:06.862Z,32.39
2023-05-22T10:25:09.830Z,32.31
2023-05-22T10:26:06.921Z,32.13
2023-05-22T10:27:06.911Z,32.06
2023-05-22T10:28:06.978Z,32.10
2023-05-22T10:29:06.904Z,32.84
2023-05-22T10:30:07.147Z,32.41
2023-05-22T10:31:06.914Z,32.32
2023-05-22T10:32:06.890Z,32.91
2023-05-22T10:33:07.203Z,32.37
2023-05-22T10:34:06.960Z,32.89
2023-05-22T10:35:08.027Z,32.38
2023-05-22T10:36:06.853Z,32.53
2023-05-22T10:37:16.525Z,32.13
2023-05-22T10:38:08.142Z,32.09
2023-05-22T10:39:06.952Z,32.17
2023-05-22T10:40:06.946Z,32.07
2023-05-22T10:41:06.832Z,32.10
2023-05-22T10:42:06.853Z,32.04
2023-05-22T10:43:07.195Z,32.05
2023-05-22T10:44:06.802Z,32.08
2023-05-22T10:45:06.801Z,32.18
2023-05-22T10:46:06.861Z,32.07
2023-05-22T10:47:06.794Z,32.06
2023-05-22T10:48:07.164Z,32.08
2023-05-22T10:49:06.811Z,32.11
2023-05-22T10:50:06.899Z,32.12
2023-05-22T10:51:06.910Z,32.13
2023-05-22T10:52:06.951Z,32.16
2023-05-22T10:53:07.022Z,32.17
2023-05-22T10:54:07.045Z,32.11
2023-05-22T10:55:07.160Z,32.19
2023-05-22T10:56:07.279Z,32.21
2023-05-22T10:57:07.183Z,32.34
2023-05-22T10:58:07.243Z,32.34
2023-05-22T10:59:07.293Z,32.39
2023-05-22T11:00:07.317Z,32.30
2023-05-22T11:01:07.698Z,32.21
2023-05-22T11:02:08.421Z,32.29
2023-05-22T11:03:17.721Z,32.23
2023-05-22T11:04:08.472Z,32.29
2023-05-22T11:05:07.538Z,32.27
2023-05-22T11:06:07.673Z,32.16
2023-05-22T11:07:07.439Z,32.23
2023-05-22T11:08:07.439Z,32.25
2023-05-22T11:09:07.444Z,32.20
2023-05-22T11:10:07.404Z,32.26
2023-05-22T11:11:07.679Z,32.16
2023-05-22T11:12:07.495Z,32.19
2023-05-22T11:13:07.403Z,32.18
2023-05-22T11:14:07.422Z,32.20
2023-05-22T11:15:07.401Z,32.16
2023-05-22T11:16:07.396Z,32.09
2023-05-22T11:17:07.554Z,32.06
2023-05-22T11:18:07.455Z,32.05
2023-05-22T11:19:21.876Z,32.05
2023-05-22T11:20:08.578Z,32.03
2023-05-22T11:21:07.448Z,31.64
2023-05-22T11:22:07.425Z,31.71
2023-05-22T11:23:07.470Z,31.34
2023-05-22T11:24:07.643Z,31.28
2023-05-22T11:25:08.190Z,31.05
2023-05-22T11:26:07.454Z,30.67
2023-05-22T11:27:07.412Z,30.44
2023-05-22T11:28:07.439Z,30.22
2023-05-22T11:29:07.402Z,29.91
2023-05-22T11:30:07.447Z,29.69
2023-05-22T11:31:07.440Z,29.46
2023-05-22T11:32:07.428Z,29.12
2023-05-22T11:33:07.480Z,29.08
2023-05-22T11:34:07.454Z,29.06
2023-05-22T11:35:07.551Z,28.95
2023-05-22T11:36:07.648Z,28.93
2023-05-22T11:37:07.622Z,28.71
2023-05-22T11:38:07.745Z,28.59
2023-05-22T11:39:07.682Z,28.54
2023-05-22T11:40:07.753Z,28.41
2023-05-22T11:41:07.793Z,28.46
2023-05-22T11:42:07.864Z,28.59
2023-05-22T11:43:07.884Z,28.52
2023-05-22T11:44:08.082Z,28.33
2023-05-22T11:45:08.036Z,28.11
2023-05-22T11:46:08.147Z,28.12
2023-05-22T11:47:08.104Z,27.90
2023-05-22T11:48:08.290Z,27.97
2023-05-22T11:49:08.234Z,27.69
2023-05-22T11:50:08.278Z,27.61
2023-05-22T11:51:08.339Z,27.59
2023-05-22T11:52:08.397Z,27.52
2023-05-22T11:53:08.476Z,27.53
2023-05-22T11:54:08.575Z,27.38
2023-05-22T11:55:08.583Z,27.34
2023-05-22T11:56:08.592Z,27.31
2023-05-22T11:57:08.724Z,27.37
2023-05-22T11:58:08.748Z,27.45
2023-05-22T11:59:08.754Z,27.45
2023-05-22T12:00:09.167Z,27.41
2023-05-22T12:01:08.855Z,27.42
2023-05-22T12:02:08.929Z,26.95
2023-05-22T12:03:09.044Z,26.48
2023-05-22T12:04:09.056Z,26.16
2023-05-22T12:05:09.102Z,25.99
2023-05-22T12:06:09.226Z,26.20
2023-05-22T12:07:09.178Z,26.39
2023-05-22T12:08:09.216Z,26.79
2023-05-22T12:09:09.291Z,26.31
2023-05-22T12:10:09.361Z,26.34
2023-05-22T12:11:09.415Z,26.09
2023-05-22T12:12:09.424Z,26.21
2023-05-22T12:13:09.476Z,26.13
2023-05-22T12:14:09.462Z,26.46
2023-05-22T12:15:09.559Z,26.38
2023-05-22T12:16:09.700Z,26.46
2023-05-22T12:17:09.644Z,26.17
2023-05-22T12:18:09.729Z,24.77
2023-05-22T12:19:09.788Z,24.30
2023-05-22T12:20:09.824Z,24.32
2023-05-22T12:21:09.880Z,24.18
2023-05-22T12:22:09.928Z,23.81
2023-05-22T12:23:10.355Z,23.91
2023-05-22T12:24:10.044Z,23.70
2023-05-22T12:25:10.123Z,23.78
2023-05-22T12:26:10.163Z,23.92
2023-05-22T12:27:10.286Z,24.14
2023-05-22T12:28:10.342Z,23.95
2023-05-22T12:29:10.337Z,24.20
2023-05-22T12:30:10.428Z,24.33
2023-05-22T12:31:10.459Z,24.55
2023-05-22T12:32:10.612Z,24.64
2023-05-22T12:33:10.627Z,23.71
2023-05-22T12:34:10.578Z,23.41
2023-05-22T12:35:10.804Z,23.63
2023-05-22T12:36:10.700Z,23.24
2023-05-22T12:37:10.762Z,23.53
2023-05-22T12:38:11.685Z,23.83
2023-05-22T12:39:10.818Z,23.65
2023-05-22T12:40:10.948Z,23.45
2023-05-22T12:41:10.942Z,23.31
2023-05-22T12:42:10.955Z,23.27
2023-05-22T12:43:11.206Z,23.22
2023-05-22T12:44:10.997Z,23.19
2023-05-22T12:45:11.011Z,23.08
2023-05-22T12:46:11.137Z,23.05
2023-05-22T12:47:11.128Z,22.99
2023-05-22T12:48:11.410Z,23.18
2023-05-22T12:49:11.238Z,23.26
2023-05-22T12:50:11.333Z,23.21
2023-05-22T12:51:11.263Z,23.24
2023-05-22T12:52:11.314Z,23.22
2023-05-22T12:53:11.364Z,23.13